sensor_id;sensor_type;location;lat;lon;timestamp;pressure;altitude;pressure_sealevel;temperature;humidity
55540;BME280;41384;51.418;7.286;2022-12-11T00:00:13;99359.03;;;1.01;96.34
55540;BME280;41384;51.418;7.286;2022-12-11T00:02:39;99354.84;;;1.08;100.00
55540;BME280;41384;51.418;7.286;2022-12-11T00:05:05;99349.97;;;1.65;96.75
55540;BME280;41384;51.418;7.286;2022-12-11T00:07:30;99352.47;;;1.91;95.79
55540;BME280;41384;51.418;7.286;2022-12-11T00:09:55;99350.19;;;1.80;95.98
55540;BME280;41384;51.418;7.286;2022-12-11T00:12:21;99351.50;;;1.92;95.68
55540;BME280;41384;51.418;7.286;2022-12-11T00:14:46;99349.84;;;1.66;96.11
55540;BME280;41384;51.418;7.286;2022-12-11T00:17:11;99355.69;;;1.77;96.90
55540;BME280;41384;51.418;7.286;2022-12-11T00:19:37;99352.97;;;1.78;93.57
55540;BME280;41384;51.418;7.286;2022-12-11T00:22:02;99355.56;;;1.86;95.93
55540;BME280;41384;51.418;7.286;2022-12-11T00:24:27;99357.78;;;1.65;95.73
55540;BME280;41384;51.418;7.286;2022-12-11T00:26:53;99358.41;;;1.50;94.77
55540;BME280;41384;51.418;7.286;2022-12-11T00:29:18;99357.78;;;1.73;95.74
55540;BME280;41384;51.418;7.286;2022-12-11T00:31:43;99368.16;;;1.56;96.57
55540;BME280;41384;51.418;7.286;2022-12-11T00:34:09;99356.88;;;1.82;93.64
55540;BME280;41384;51.418;7.286;2022-12-11T00:36:37;99365.06;;;1.44;95.88
55540;BME280;41384;51.418;7.286;2022-12-11T00:39:03;99363.50;;;1.68;95.48
55540;BME280;41384;51.418;7.286;2022-12-11T00:41:28;99361.88;;;1.75;95.43
55540;BME280;41384;51.418;7.286;2022-12-11T00:43:54;99362.72;;;1.93;92.90
55540;BME280;41384;51.418;7.286;2022-12-11T00:46:19;99362.41;;;1.87;93.92
55540;BME280;41384;51.418;7.286;2022-12-11T00:48:44;99373.91;;;1.68;95.56
55540;BME280;41384;51.418;7.286;2022-12-11T00:51:10;99363.59;;;1.42;96.82
55540;BME280;41384;51.418;7.286;2022-12-11T00:53:37;99362.69;;;1.76;95.39
55540;BME280;41384;51.418;7.286;2022-12-11T00:56:11;99367.72;;;1.61;95.89
55540;BME280;41384;51.418;7.286;2022-12-11T00:58:37;99362.69;;;1.76;95.06
55540;BME280;41384;51.418;7.286;2022-12-11T01:01:10;99364.03;;;1.97;93.66
55540;BME280;41384;51.418;7.286;2022-12-11T01:03:36;99357.19;;;1.96;93.39
55540;BME280;41384;51.418;7.286;2022-12-11T01:06:02;99359.16;;;1.94;94.43
55540;BME280;41384;51.418;7.286;2022-12-11T01:08:28;99358.66;;;2.07;92.76
55540;BME280;41384;51.418;7.286;2022-12-11T01:11:02;99354.09;;;2.09;92.70
55540;BME280;41384;51.418;7.286;2022-12-11T01:13:28;99349.72;;;1.84;94.58
55540;BME280;41384;51.418;7.286;2022-12-11T01:15:53;99341.59;;;2.04;93.77
55540;BME280;41384;51.418;7.286;2022-12-11T01:18:18;99342.03;;;1.83;93.65
55540;BME280;41384;51.418;7.286;2022-12-11T01:20:43;99338.00;;;1.97;93.54
55540;BME280;41384;51.418;7.286;2022-12-11T01:23:11;99336.03;;;1.82;95.51
55540;BME280;41384;51.418;7.286;2022-12-11T01:25:37;99336.84;;;2.08;93.18
55540;BME280;41384;51.418;7.286;2022-12-11T01:28:03;99337.50;;;2.01;93.93
55540;BME280;41384;51.418;7.286;2022-12-11T01:30:29;99331.03;;;2.22;92.88
55540;BME280;41384;51.418;7.286;2022-12-11T01:32:54;99338.31;;;2.35;91.45
55540;BME280;41384;51.418;7.286;2022-12-11T01:35:19;99335.56;;;2.28;91.95
55540;BME280;41384;51.418;7.286;2022-12-11T01:37:45;99341.44;;;2.22;93.18
55540;BME280;41384;51.418;7.286;2022-12-11T01:40:16;99340.44;;;1.98;94.43
55540;BME280;41384;51.418;7.286;2022-12-11T01:42:42;99344.66;;;2.16;94.38
55540;BME280;41384;51.418;7.286;2022-12-11T01:47:48;99341.41;;;2.06;94.95
55540;BME280;41384;51.418;7.286;2022-12-11T01:50:15;99337.81;;;2.15;95.35
55540;BME280;41384;51.418;7.286;2022-12-11T01:52:42;99340.75;;;2.12;94.68
55540;BME280;41384;51.418;7.286;2022-12-11T01:55:08;99338.50;;;2.33;93.19
55540;BME280;41384;51.418;7.286;2022-12-11T01:57:36;99338.16;;;2.12;94.35
55540;BME280;41384;51.418;7.286;2022-12-11T02:00:04;99341.09;;;1.92;95.99
55540;BME280;41384;51.418;7.286;2022-12-11T02:02:30;99338.47;;;2.00;97.25
55540;BME280;41384;51.418;7.286;2022-12-11T02:04:56;99344.50;;;2.01;96.45
55540;BME280;41384;51.418;7.286;2022-12-11T02:07:22;99342.56;;;2.03;96.13
55540;BME280;41384;51.418;7.286;2022-12-11T02:09:47;99341.91;;;1.93;97.03
55540;BME280;41384;51.418;7.286;2022-12-11T02:15:23;99325.97;;;2.21;97.32
55540;BME280;41384;51.418;7.286;2022-12-11T02:18:05;99324.34;;;2.03;97.52
55540;BME280;41384;51.418;7.286;2022-12-11T02:20:43;99326.75;;;2.04;98.58
55540;BME280;41384;51.418;7.286;2022-12-11T02:28:35;99319.63;;;2.23;97.35
55540;BME280;41384;51.418;7.286;2022-12-11T02:31:11;99325.81;;;2.22;97.71
55540;BME280;41384;51.418;7.286;2022-12-11T02:33:46;99325.63;;;1.82;98.71
55540;BME280;41384;51.418;7.286;2022-12-11T02:36:16;99320.09;;;2.18;98.66
55540;BME280;41384;51.418;7.286;2022-12-11T02:38:47;99319.91;;;2.20;98.08
55540;BME280;41384;51.418;7.286;2022-12-11T02:41:16;99327.59;;;2.13;99.77
55540;BME280;41384;51.418;7.286;2022-12-11T02:43:42;99327.75;;;2.28;98.63
55540;BME280;41384;51.418;7.286;2022-12-11T02:46:09;99323.50;;;2.36;97.57
55540;BME280;41384;51.418;7.286;2022-12-11T02:48:37;99319.13;;;2.11;98.11
55540;BME280;41384;51.418;7.286;2022-12-11T02:51:04;99317.31;;;2.12;99.53
55540;BME280;41384;51.418;7.286;2022-12-11T02:53:31;99315.56;;;1.96;100.00
55540;BME280;41384;51.418;7.286;2022-12-11T02:56:15;99309.84;;;1.92;99.60
55540;BME280;41384;51.418;7.286;2022-12-11T02:58:48;99300.06;;;2.11;99.23
55540;BME280;41384;51.418;7.286;2022-12-11T03:01:15;99309.03;;;2.16;97.48
55540;BME280;41384;51.418;7.286;2022-12-11T03:03:40;99305.28;;;1.94;98.33
55540;BME280;41384;51.418;7.286;2022-12-11T03:06:09;99306.91;;;2.12;98.59
55540;BME280;41384;51.418;7.286;2022-12-11T03:08:37;99308.31;;;1.40;100.00
55540;BME280;41384;51.418;7.286;2022-12-11T03:11:02;99311.66;;;2.08;98.97
55540;BME280;41384;51.418;7.286;2022-12-11T03:13:27;99303.19;;;2.06;98.58
55540;BME280;41384;51.418;7.286;2022-12-11T03:16:14;99302.88;;;2.09;98.34
55540;BME280;41384;51.418;7.286;2022-12-11T03:21:23;99304.81;;;2.15;97.81
55540;BME280;41384;51.418;7.286;2022-12-11T03:23:57;99298.94;;;2.22;97.68
55540;BME280;41384;51.418;7.286;2022-12-11T03:26:27;99300.25;;;1.93;98.01
55540;BME280;41384;51.418;7.286;2022-12-11T03:28:58;99309.03;;;1.15;100.00
55540;BME280;41384;51.418;7.286;2022-12-11T03:31:32;99306.56;;;1.49;100.00
55540;BME280;41384;51.418;7.286;2022-12-11T03:34:03;99305.63;;;1.83;100.00
55540;BME280;41384;51.418;7.286;2022-12-11T03:36:35;99311.31;;;1.95;98.88
55540;BME280;41384;51.418;7.286;2022-12-11T03:39:07;99301.88;;;1.85;100.00
55540;BME280;41384;51.418;7.286;2022-12-11T03:41:34;99300.72;;;1.80;98.94
55540;BME280;41384;51.418;7.286;2022-12-11T03:44:02;99306.59;;;1.73;100.00
55540;BME280;41384;51.418;7.286;2022-12-11T03:46:34;99306.25;;;1.85;100.00
55540;BME280;41384;51.418;7.286;2022-12-11T03:49:05;99303.66;;;1.85;100.00
55540;BME280;41384;51.418;7.286;2022-12-11T03:51:33;99298.91;;;1.55;100.00
55540;BME280;41384;51.418;7.286;2022-12-11T03:53:59;99301.25;;;1.83;100.00
55540;BME280;41384;51.418;7.286;2022-12-11T03:56:27;99309.84;;;1.92;99.21
55540;BME280;41384;51.418;7.286;2022-12-11T03:58:54;99304.63;;;2.09;98.85
55540;BME280;41384;51.418;7.286;2022-12-11T04:01:19;99306.91;;;2.12;98.14
55540;BME280;41384;51.418;7.286;2022-12-11T04:03:44;99305.59;;;2.16;97.44
55540;BME280;41384;51.418;7.286;2022-12-11T04:06:09;99309.84;;;2.17;96.58
55540;BME280;41384;51.418;7.286;2022-12-11T04:08:35;99301.88;;;2.18;96.79
55540;BME280;41384;51.418;7.286;2022-12-11T04:11:02;99306.91;;;2.12;97.28
55540;BME280;41384;51.418;7.286;2022-12-11T04:13:46;99308.69;;;2.36;95.04
55540;BME280;41384;51.418;7.286;2022-12-11T04:16:31;99307.91;;;2.27;96.87
55540;BME280;41384;51.418;7.286;2022-12-11T04:18:56;99304.16;;;2.22;96.77
55540;BME280;41384;51.418;7.286;2022-12-11T04:21:40;99313.28;;;1.84;98.82
55540;BME280;41384;51.418;7.286;2022-12-11T04:24:24;99306.25;;;2.01;99.04
55540;BME280;41384;51.418;7.286;2022-12-11T04:26:49;99300.41;;;2.08;98.35
55540;BME280;41384;51.418;7.286;2022-12-11T04:29:14;99303.19;;;1.98;99.42
55540;BME280;41384;51.418;7.286;2022-12-11T04:31:40;99299.09;;;2.20;98.18
55540;BME280;41384;51.418;7.286;2022-12-11T04:34:05;99303.50;;;2.28;96.11
55540;BME280;41384;51.418;7.286;2022-12-11T04:36:30;99298.16;;;2.21;97.52
55540;BME280;41384;51.418;7.286;2022-12-11T04:38:56;99298.94;;;2.22;97.98
55540;BME280;41384;51.418;7.286;2022-12-11T04:41:21;99296.00;;;2.25;97.27
55540;BME280;41384;51.418;7.286;2022-12-11T04:43:46;99299.09;;;2.03;98.81
55540;BME280;41384;51.418;7.286;2022-12-11T04:46:17;99310.34;;;2.21;96.93
55540;BME280;41384;51.418;7.286;2022-12-11T04:48:42;99301.53;;;2.30;96.77
55540;BME280;41384;51.418;7.286;2022-12-11T04:51:08;99303.00;;;2.16;96.85
55540;BME280;41384;51.418;7.286;2022-12-11T04:53:34;99292.09;;;2.21;95.90
55540;BME280;41384;51.418;7.286;2022-12-11T04:55:59;99299.63;;;1.82;99.27
55540;BME280;41384;51.418;7.286;2022-12-11T04:58:25;99302.88;;;1.93;98.57
55540;BME280;41384;51.418;7.286;2022-12-11T05:00:51;99298.44;;;1.77;99.25
55540;BME280;41384;51.418;7.286;2022-12-11T05:03:18;99298.94;;;2.13;98.84
55540;BME280;41384;51.418;7.286;2022-12-11T05:05:51;99295.03;;;2.17;97.04
55540;BME280;41384;51.418;7.286;2022-12-11T05:08:20;99300.56;;;2.31;96.11
55540;BME280;41384;51.418;7.286;2022-12-11T05:10:56;99295.00;;;2.42;96.43
55540;BME280;41384;51.418;7.286;2022-12-11T05:13:21;99291.75;;;2.40;94.02
55540;BME280;41384;51.418;7.286;2022-12-11T05:15:47;99283.44;;;2.53;93.49
55540;BME280;41384;51.418;7.286;2022-12-11T05:18:13;99279.06;;;2.29;94.94
55540;BME280;41384;51.418;7.286;2022-12-11T05:20:38;99287.03;;;2.44;94.11
55540;BME280;41384;51.418;7.286;2022-12-11T05:23:03;99289.94;;;2.49;92.87
55540;BME280;41384;51.418;7.286;2022-12-11T05:25:28;99284.44;;;2.44;93.24
55540;BME280;41384;51.418;7.286;2022-12-11T05:27:54;99289.66;;;2.36;94.74
55540;BME280;41384;51.418;7.286;2022-12-11T05:30:19;99283.94;;;2.40;93.36
55540;BME280;41384;51.418;7.286;2022-12-11T05:32:44;99282.63;;;2.36;92.89
55540;BME280;41384;51.418;7.286;2022-12-11T05:35:09;99280.53;;;2.40;93.69
55540;BME280;41384;51.418;7.286;2022-12-11T05:37:35;99277.28;;;2.38;92.70
55540;BME280;41384;51.418;7.286;2022-12-11T05:40:00;99284.59;;;2.42;92.74
55540;BME280;41384;51.418;7.286;2022-12-11T05:42:26;99280.22;;;2.26;91.76
55540;BME280;41384;51.418;7.286;2022-12-11T05:44:51;99278.78;;;2.15;91.44
55540;BME280;41384;51.418;7.286;2022-12-11T05:47:16;99281.06;;;2.10;91.74
55540;BME280;41384;51.418;7.286;2022-12-11T05:49:44;99273.06;;;2.20;91.48
55540;BME280;41384;51.418;7.286;2022-12-11T05:52:09;99276.47;;;2.21;91.58
55540;BME280;41384;51.418;7.286;2022-12-11T05:54:34;99283.47;;;2.12;92.23
55540;BME280;41384;51.418;7.286;2022-12-11T05:57:00;99273.56;;;2.15;91.69
55540;BME280;41384;51.418;7.286;2022-12-11T05:59:25;99280.22;;;2.18;91.29
55540;BME280;41384;51.418;7.286;2022-12-11T06:01:50;99282.50;;;2.13;91.59
55540;BME280;41384;51.418;7.286;2022-12-11T06:04:15;99281.03;;;2.18;91.08
55540;BME280;41384;51.418;7.286;2022-12-11T06:06:41;99280.75;;;1.97;91.80
55540;BME280;41384;51.418;7.286;2022-12-11T06:09:11;99276.63;;;2.19;91.84
55540;BME280;41384;51.418;7.286;2022-12-11T06:11:37;99274.53;;;2.23;90.87
55540;BME280;41384;51.418;7.286;2022-12-11T06:14:03;99272.75;;;2.31;89.94
55540;BME280;41384;51.418;7.286;2022-12-11T06:16:28;99261.81;;;2.28;90.06
55540;BME280;41384;51.418;7.286;2022-12-11T06:18:54;99263.91;;;2.49;89.27
55540;BME280;41384;51.418;7.286;2022-12-11T06:21:25;99259.41;;;2.26;88.92
55540;BME280;41384;51.418;7.286;2022-12-11T06:23:52;99255.16;;;2.25;89.14
55540;BME280;41384;51.418;7.286;2022-12-11T06:26:19;99255.00;;;2.18;89.55
55540;BME280;41384;51.418;7.286;2022-12-11T06:28:45;99258.88;;;2.39;89.36
55540;BME280;41384;51.418;7.286;2022-12-11T06:31:11;99266.88;;;2.38;88.62
55540;BME280;41384;51.418;7.286;2022-12-11T06:33:36;99255.56;;;2.54;88.03
55540;BME280;41384;51.418;7.286;2022-12-11T06:36:06;99255.53;;;2.62;88.96
55540;BME280;41384;51.418;7.286;2022-12-11T06:38:32;99262.22;;;2.65;87.27
55540;BME280;41384;51.418;7.286;2022-12-11T06:40:59;99257.03;;;2.56;87.35
55540;BME280;41384;51.418;7.286;2022-12-11T06:43:25;99265.75;;;2.07;87.73
55540;BME280;41384;51.418;7.286;2022-12-11T06:45:50;99269.78;;;2.43;87.78
55540;BME280;41384;51.418;7.286;2022-12-11T06:48:16;99268.63;;;2.45;88.06
55540;BME280;41384;51.418;7.286;2022-12-11T06:50:42;99267.97;;;2.43;88.62
55540;BME280;41384;51.418;7.286;2022-12-11T06:53:09;99276.06;;;2.57;87.28
55540;BME280;41384;51.418;7.286;2022-12-11T06:55:35;99278.56;;;2.50;86.89
55540;BME280;41384;51.418;7.286;2022-12-11T06:58:00;99274.81;;;2.36;86.92
55540;BME280;41384;51.418;7.286;2022-12-11T07:00:26;99270.56;;;2.52;86.43
55540;BME280;41384;51.418;7.286;2022-12-11T07:02:51;99274.34;;;2.41;86.98
55540;BME280;41384;51.418;7.286;2022-12-11T07:05:17;99271.78;;;2.24;88.70
55540;BME280;41384;51.418;7.286;2022-12-11T07:07:42;99279.25;;;2.27;88.87
55540;BME280;41384;51.418;7.286;2022-12-11T07:10:08;99274.53;;;2.23;89.17
55540;BME280;41384;51.418;7.286;2022-12-11T07:12:33;99267.00;;;2.36;88.74
55540;BME280;41384;51.418;7.286;2022-12-11T07:14:58;99275.47;;;2.38;88.16
55540;BME280;41384;51.418;7.286;2022-12-11T07:17:24;99276.81;;;2.26;87.50
55540;BME280;41384;51.418;7.286;2022-12-11T07:19:49;99271.56;;;2.34;87.95
55540;BME280;41384;51.418;7.286;2022-12-11T07:22:14;99271.53;;;2.51;86.53
55540;BME280;41384;51.418;7.286;2022-12-11T07:24:39;99272.78;;;2.63;87.54
55540;BME280;41384;51.418;7.286;2022-12-11T07:27:05;99279.16;;;2.69;87.28
55540;BME280;41384;51.418;7.286;2022-12-11T07:29:30;99280.50;;;2.56;86.24
55540;BME280;41384;51.418;7.286;2022-12-11T07:31:55;99283.41;;;2.61;86.08
55540;BME280;41384;51.418;7.286;2022-12-11T07:34:21;99279.88;;;2.46;86.56
55540;BME280;41384;51.418;7.286;2022-12-11T07:36:46;99281.50;;;2.47;87.55
55540;BME280;41384;51.418;7.286;2022-12-11T07:39:11;99279.03;;;2.45;87.43
55540;BME280;41384;51.418;7.286;2022-12-11T07:41:37;99278.38;;;2.43;87.31
55540;BME280;41384;51.418;7.286;2022-12-11T07:44:03;99281.31;;;2.40;88.26
55540;BME280;41384;51.418;7.286;2022-12-11T07:46:31;99277.31;;;2.21;88.78
55540;BME280;41384;51.418;7.286;2022-12-11T07:48:56;99284.91;;;2.39;87.53
55540;BME280;41384;51.418;7.286;2022-12-11T07:51:23;99275.63;;;2.45;86.41
55540;BME280;41384;51.418;7.286;2022-12-11T07:53:51;99278.91;;;2.39;86.43
55540;BME280;41384;51.418;7.286;2022-12-11T07:56:17;99277.06;;;2.56;85.32
55540;BME280;41384;51.418;7.286;2022-12-11T07:58:43;99275.47;;;2.38;87.86
55540;BME280;41384;51.418;7.286;2022-12-11T08:01:13;99280.53;;;2.40;87.63
55540;BME280;41384;51.418;7.286;2022-12-11T08:03:39;99278.56;;;2.42;87.48
55540;BME280;41384;51.418;7.286;2022-12-11T08:06:04;99288.00;;;2.43;87.51
55540;BME280;41384;51.418;7.286;2022-12-11T08:08:30;99277.91;;;2.48;86.17
55540;BME280;41384;51.418;7.286;2022-12-11T08:11:00;99283.09;;;2.56;86.36
55540;BME280;41384;51.418;7.286;2022-12-11T08:13:25;99283.13;;;2.48;86.86
55540;BME280;41384;51.418;7.286;2022-12-11T08:15:51;99289.75;;;2.59;86.59
55540;BME280;41384;51.418;7.286;2022-12-11T08:18:16;99293.38;;;2.41;87.76
55540;BME280;41384;51.418;7.286;2022-12-11T08:20:42;99292.88;;;2.46;87.66
55540;BME280;41384;51.418;7.286;2022-12-11T08:23:07;99290.25;;;2.54;86.70
55540;BME280;41384;51.418;7.286;2022-12-11T08:25:32;99279.03;;;2.45;87.24
55540;BME280;41384;51.418;7.286;2022-12-11T08:27:57;99285.56;;;2.41;88.14
55540;BME280;41384;51.418;7.286;2022-12-11T08:30:23;99287.69;;;2.38;88.48
55540;BME280;41384;51.418;7.286;2022-12-11T08:32:48;99282.63;;;2.44;88.53
55540;BME280;41384;51.418;7.286;2022-12-11T08:35:13;99292.09;;;2.29;88.91
55540;BME280;41384;51.418;7.286;2022-12-11T08:37:39;99285.41;;;2.43;88.96
55540;BME280;41384;51.418;7.286;2022-12-11T08:40:05;99284.56;;;2.51;88.60
55540;BME280;41384;51.418;7.286;2022-12-11T08:42:30;99287.63;;;2.62;87.61
55540;BME280;41384;51.418;7.286;2022-12-11T08:44:56;99278.81;;;2.72;86.56
55540;BME280;41384;51.418;7.286;2022-12-11T08:47:21;99281.94;;;2.51;86.88
55540;BME280;41384;51.418;7.286;2022-12-11T08:49:47;99280.19;;;2.51;87.61
55540;BME280;41384;51.418;7.286;2022-12-11T08:52:12;99279.38;;;2.42;88.23
55540;BME280;41384;51.418;7.286;2022-12-11T08:54:37;99270.13;;;2.40;87.78
55540;BME280;41384;51.418;7.286;2022-12-11T08:57:03;99268.59;;;2.54;87.67
55540;BME280;41384;51.418;7.286;2022-12-11T08:59:29;99278.38;;;2.52;88.19
55540;BME280;41384;51.418;7.286;2022-12-11T09:01:55;99275.66;;;2.28;89.15
55540;BME280;41384;51.418;7.286;2022-12-11T09:04:21;99277.59;;;2.43;88.76
55540;BME280;41384;51.418;7.286;2022-12-11T09:06:46;99276.44;;;2.37;89.67
55540;BME280;41384;51.418;7.286;2022-12-11T09:09:12;99279.53;;;2.49;88.84
55540;BME280;41384;51.418;7.286;2022-12-11T09:11:38;99276.91;;;2.57;88.44
55540;BME280;41384;51.418;7.286;2022-12-11T09:14:04;99280.34;;;2.41;87.62
55540;BME280;41384;51.418;7.286;2022-12-11T09:16:30;99280.31;;;2.66;87.70
55540;BME280;41384;51.418;7.286;2022-12-11T09:18:57;99277.19;;;2.71;87.86
55540;BME280;41384;51.418;7.286;2022-12-11T09:21:25;99288.59;;;2.70;87.56
55540;BME280;41384;51.418;7.286;2022-12-11T09:23:52;99282.03;;;2.82;86.98
55540;BME280;41384;51.418;7.286;2022-12-11T09:26:18;99290.56;;;2.59;88.83
55540;BME280;41384;51.418;7.286;2022-12-11T09:28:44;99292.34;;;2.59;88.41
55540;BME280;41384;51.418;7.286;2022-12-11T09:31:12;99276.38;;;2.70;88.69
55540;BME280;41384;51.418;7.286;2022-12-11T09:33:37;99278.50;;;2.67;88.65
55540;BME280;41384;51.418;7.286;2022-12-11T09:36:03;99289.75;;;2.59;89.29
55540;BME280;41384;51.418;7.286;2022-12-11T09:38:29;99286.69;;;2.55;89.38
55540;BME280;41384;51.418;7.286;2022-12-11T09:40:55;99290.41;;;2.69;88.37
55540;BME280;41384;51.418;7.286;2022-12-11T09:43:37;99279.84;;;2.54;87.96
55540;BME280;41384;51.418;7.286;2022-12-11T09:46:08;99284.75;;;2.41;89.34
55540;BME280;41384;51.418;7.286;2022-12-11T09:48:35;99275.25;;;2.65;88.96
55540;BME280;41384;51.418;7.286;2022-12-11T09:51:07;99272.13;;;2.77;88.53
55540;BME280;41384;51.418;7.286;2022-12-11T09:53:35;99272.16;;;2.69;87.79
55540;BME280;41384;51.418;7.286;2022-12-11T09:59:07;99272.06;;;2.38;90.26
55540;BME280;41384;51.418;7.286;2022-12-11T10:01:53;99271.81;;;2.64;89.00
55540;BME280;41384;51.418;7.286;2022-12-11T10:04:29;99273.59;;;2.72;87.10
55540;BME280;41384;51.418;7.286;2022-12-11T10:07:24;99275.34;;;2.15;88.78
55540;BME280;41384;51.418;7.286;2022-12-11T10:15:36;99260.75;;;2.70;86.91
55540;BME280;41384;51.418;7.286;2022-12-11T10:18:10;99256.81;;;2.74;88.29
55540;BME280;41384;51.418;7.286;2022-12-11T10:20:36;99249.69;;;2.60;87.66
55540;BME280;41384;51.418;7.286;2022-12-11T10:23:09;99256.91;;;2.89;86.83
55540;BME280;41384;51.418;7.286;2022-12-11T10:25:43;99252.22;;;2.85;87.57
55540;BME280;41384;51.418;7.286;2022-12-11T10:28:11;99248.38;;;2.72;87.42
55540;BME280;41384;51.418;7.286;2022-12-11T10:30:40;99251.63;;;2.74;88.59
55540;BME280;41384;51.418;7.286;2022-12-11T10:35:54;99243.81;;;2.66;86.89
55540;BME280;41384;51.418;7.286;2022-12-11T10:38:26;99252.41;;;2.75;86.84
55540;BME280;41384;51.418;7.286;2022-12-11T10:41:09;99248.66;;;2.77;87.49
55540;BME280;41384;51.418;7.286;2022-12-11T10:43:38;99242.34;;;3.03;86.99
55540;BME280;41384;51.418;7.286;2022-12-11T10:46:06;99242.34;;;3.03;86.44
55540;BME280;41384;51.418;7.286;2022-12-11T10:48:31;99244.13;;;3.03;85.87
55540;BME280;41384;51.418;7.286;2022-12-11T10:51:00;99245.78;;;2.56;86.94
55540;BME280;41384;51.418;7.286;2022-12-11T10:53:27;99240.03;;;2.77;87.13
55540;BME280;41384;51.418;7.286;2022-12-11T10:55:54;99232.06;;;3.02;84.88
55540;BME280;41384;51.418;7.286;2022-12-11T10:58:24;99230.97;;;2.96;84.00
55540;BME280;41384;51.418;7.286;2022-12-11T11:01:02;99234.38;;;2.97;85.16
55540;BME280;41384;51.418;7.286;2022-12-11T11:03:29;99235.66;;;2.69;85.55
55540;BME280;41384;51.418;7.286;2022-12-11T11:06:13;99235.16;;;2.74;85.05
55540;BME280;41384;51.418;7.286;2022-12-11T11:08:42;99231.63;;;2.58;84.88
55540;BME280;41384;51.418;7.286;2022-12-11T11:14:03;99235.44;;;2.79;85.42
55540;BME280;41384;51.418;7.286;2022-12-11T11:16:29;99231.53;;;2.35;88.17
55540;BME280;41384;51.418;7.286;2022-12-11T11:18:56;99232.66;;;2.41;87.21
55540;BME280;41384;51.418;7.286;2022-12-11T11:21:23;99238.69;;;2.81;85.51
55540;BME280;41384;51.418;7.286;2022-12-11T11:23:50;99226.81;;;2.39;85.36
55540;BME280;41384;51.418;7.286;2022-12-11T11:26:16;99230.81;;;2.58;85.68
55540;BME280;41384;51.418;7.286;2022-12-11T11:28:55;99227.28;;;2.34;88.45
55540;BME280;41384;51.418;7.286;2022-12-11T11:31:34;99221.56;;;2.47;87.63
55540;BME280;41384;51.418;7.286;2022-12-11T11:34:06;99218.91;;;2.63;85.26
55540;BME280;41384;51.418;7.286;2022-12-11T11:36:34;99220.69;;;2.71;85.84
55540;BME280;41384;51.418;7.286;2022-12-11T11:39:19;99218.38;;;2.76;86.12
55540;BME280;41384;51.418;7.286;2022-12-11T11:41:57;99217.94;;;2.65;84.69
55540;BME280;41384;51.418;7.286;2022-12-11T11:44:58;99215.13;;;2.18;84.83
55540;BME280;41384;51.418;7.286;2022-12-11T11:47:30;99209.56;;;2.38;85.12
55540;BME280;41384;51.418;7.286;2022-12-11T11:50:11;99209.28;;;2.64;82.98
55540;BME280;41384;51.418;7.286;2022-12-11T11:52:45;99213.00;;;2.70;82.21
55540;BME280;41384;51.418;7.286;2022-12-11T12:00:19;99214.09;;;2.84;81.32
55540;BME280;41384;51.418;7.286;2022-12-11T12:02:46;99210.16;;;2.88;80.49
55540;BME280;41384;51.418;7.286;2022-12-11T12:05:14;99202.81;;;2.91;80.08
55540;BME280;41384;51.418;7.286;2022-12-11T12:08:07;99204.03;;;3.04;81.37
55540;BME280;41384;51.418;7.286;2022-12-11T12:11:00;99205.75;;;2.88;79.49
55540;BME280;41384;51.418;7.286;2022-12-11T12:13:31;99199.00;;;3.02;80.10
55540;BME280;41384;51.418;7.286;2022-12-11T12:16:09;99194.81;;;2.93;80.10
55540;BME280;41384;51.418;7.286;2022-12-11T12:19:07;99191.31;;;2.77;80.79
55540;BME280;41384;51.418;7.286;2022-12-11T12:21:38;99185.25;;;2.85;80.04
55540;BME280;41384;51.418;7.286;2022-12-11T12:26:52;99191.34;;;3.01;79.28
55540;BME280;41384;51.418;7.286;2022-12-11T12:32:04;99187.56;;;2.80;80.67
55540;BME280;41384;51.418;7.286;2022-12-11T12:45:28;99188.19;;;2.82;80.08
55540;BME280;41384;51.418;7.286;2022-12-11T12:47:56;99183.91;;;2.89;80.07
55540;BME280;41384;51.418;7.286;2022-12-11T12:50:30;99187.59;;;3.03;80.30
55540;BME280;41384;51.418;7.286;2022-12-11T12:52:57;99189.13;;;2.58;79.78
55540;BME280;41384;51.418;7.286;2022-12-11T12:55:29;99182.59;;;2.94;81.06
55540;BME280;41384;51.418;7.286;2022-12-11T12:58:01;99189.81;;;2.83;80.69
55540;BME280;41384;51.418;7.286;2022-12-11T13:00:32;99178.25;;;2.86;81.39
55540;BME280;41384;51.418;7.286;2022-12-11T13:03:01;99175.16;;;2.82;81.93
55540;BME280;41384;51.418;7.286;2022-12-11T13:05:29;99180.28;;;2.99;81.34
55540;BME280;41384;51.418;7.286;2022-12-11T13:07:59;99175.06;;;2.99;80.98
55540;BME280;41384;51.418;7.286;2022-12-11T13:10:36;99176.81;;;3.06;82.05
55540;BME280;41384;51.418;7.286;2022-12-11T13:13:03;99176.38;;;2.95;81.23
55540;BME280;41384;51.418;7.286;2022-12-11T13:15:40;99176.16;;;2.81;81.89
55540;BME280;41384;51.418;7.286;2022-12-11T13:18:30;99178.03;;;2.24;84.16
55540;BME280;41384;51.418;7.286;2022-12-11T13:20:57;99175.25;;;2.66;83.79
55540;BME280;41384;51.418;7.286;2022-12-11T13:23:30;99177.28;;;2.87;82.39
55540;BME280;41384;51.418;7.286;2022-12-11T13:25:59;99174.41;;;2.73;83.37
55540;BME280;41384;51.418;7.286;2022-12-11T13:34:06;99169.41;;;2.95;81.46
55540;BME280;41384;51.418;7.286;2022-12-11T13:36:34;99167.94;;;2.92;81.80
55540;BME280;41384;51.418;7.286;2022-12-11T13:39:07;99161.34;;;2.82;83.40
55540;BME280;41384;51.418;7.286;2022-12-11T13:41:43;99167.19;;;2.84;82.30
55540;BME280;41384;51.418;7.286;2022-12-11T13:44:17;99177.94;;;3.12;80.12
55540;BME280;41384;51.418;7.286;2022-12-11T13:46:43;99178.09;;;3.11;78.80
55540;BME280;41384;51.418;7.286;2022-12-11T13:49:19;99181.16;;;2.59;81.31
55540;BME280;41384;51.418;7.286;2022-12-11T13:51:52;99174.13;;;2.91;79.83
55540;BME280;41384;51.418;7.286;2022-12-11T13:54:17;99176.88;;;2.98;80.27
55540;BME280;41384;51.418;7.286;2022-12-11T13:59:34;99165.13;;;3.26;80.96
55540;BME280;41384;51.418;7.286;2022-12-11T14:02:27;99173.72;;;3.03;80.15
55540;BME280;41384;51.418;7.286;2022-12-11T14:04:53;99170.31;;;3.02;79.76
55540;BME280;41384;51.418;7.286;2022-12-11T14:07:32;99178.00;;;2.96;80.27
55540;BME280;41384;51.418;7.286;2022-12-11T14:10:02;99176.59;;;2.93;80.09
55540;BME280;41384;51.418;7.286;2022-12-11T14:12:30;99180.13;;;3.00;79.38
55540;BME280;41384;51.418;7.286;2022-12-11T14:14:58;99179.53;;;2.90;80.93